sensor_id;sensor_type;location;lat;lon;timestamp;temperature;humidity
75500;DHT22;64076;51.466;7.260;2022-10-16T00:01:26;24.20;50.30
75500;DHT22;64076;51.466;7.260;2022-10-16T00:03:52;24.10;50.30
75500;DHT22;64076;51.466;7.260;2022-10-16T00:06:20;24.10;50.30
75500;DHT22;64076;51.466;7.260;2022-10-16T00:08:46;24.20;50.30
75500;DHT22;64076;51.466;7.260;2022-10-16T00:11:25;24.10;50.30
75500;DHT22;64076;51.466;7.260;2022-10-16T00:13:54;24.10;50.30
75500;DHT22;64076;51.466;7.260;2022-10-16T00:16:20;24.10;50.40
75500;DHT22;64076;51.466;7.260;2022-10-16T00:18:45;24.10;50.40
75500;DHT22;64076;51.466;7.260;2022-10-16T00:21:26;24.10;50.40
75500;DHT22;64076;51.466;7.260;2022-10-16T00:23:55;24.10;50.40
75500;DHT22;64076;51.466;7.260;2022-10-16T00:26:20;24.10;50.40
75500;DHT22;64076;51.466;7.260;2022-10-16T00:28:47;24.10;50.40
75500;DHT22;64076;51.466;7.260;2022-10-16T00:31:14;24.10;50.40
75500;DHT22;64076;51.466;7.260;2022-10-16T00:33:43;24.10;50.40
75500;DHT22;64076;51.466;7.260;2022-10-16T00:36:11;24.10;50.40
75500;DHT22;64076;51.466;7.260;2022-10-16T00:38:37;24.10;50.40
75500;DHT22;64076;51.466;7.260;2022-10-16T00:41:04;24.10;50.40
75500;DHT22;64076;51.466;7.260;2022-10-16T00:43:43;24.10;50.40
75500;DHT22;64076;51.466;7.260;2022-10-16T00:49:17;24.10;50.30
75500;DHT22;64076;51.466;7.260;2022-10-16T00:51:52;24.10;50.40
75500;DHT22;64076;51.466;7.260;2022-10-16T00:54:22;24.10;50.40
75500;DHT22;64076;51.466;7.260;2022-10-16T00:56:49;24.10;50.40
75500;DHT22;64076;51.466;7.260;2022-10-16T00:59:38;24.10;50.40
75500;DHT22;64076;51.466;7.260;2022-10-16T01:02:04;24.10;50.40
75500;DHT22;64076;51.466;7.260;2022-10-16T01:04:36;24.10;50.30
75500;DHT22;64076;51.466;7.260;2022-10-16T01:12:48;24.10;50.20
75500;DHT22;64076;51.466;7.260;2022-10-16T01:18:22;24.10;50.10
75500;DHT22;64076;51.466;7.260;2022-10-16T01:20:54;24.10;50.10
75500;DHT22;64076;51.466;7.260;2022-10-16T01:26:13;24.10;50.10
75500;DHT22;64076;51.466;7.260;2022-10-16T01:31:25;24.10;50.10
75500;DHT22;64076;51.466;7.260;2022-10-16T01:34:20;24.10;50.00
75500;DHT22;64076;51.466;7.260;2022-10-16T01:36:53;24.20;50.00
75500;DHT22;64076;51.466;7.260;2022-10-16T01:39:24;24.10;50.00
75500;DHT22;64076;51.466;7.260;2022-10-16T01:42:16;24.20;50.00
75500;DHT22;64076;51.466;7.260;2022-10-16T01:44:45;24.20;49.90
75500;DHT22;64076;51.466;7.260;2022-10-16T01:47:13;24.10;50.00
75500;DHT22;64076;51.466;7.260;2022-10-16T01:49:40;24.10;50.00
75500;DHT22;64076;51.466;7.260;2022-10-16T01:52:09;24.10;50.00
75500;DHT22;64076;51.466;7.260;2022-10-16T01:54:38;24.10;50.00
75500;DHT22;64076;51.466;7.260;2022-10-16T01:57:07;24.10;50.00
75500;DHT22;64076;51.466;7.260;2022-10-16T01:59:38;24.10;50.00
75500;DHT22;64076;51.466;7.260;2022-10-16T02:02:09;24.10;50.00
75500;DHT22;64076;51.466;7.260;2022-10-16T02:04:39;24.10;50.00
75500;DHT22;64076;51.466;7.260;2022-10-16T02:07:06;24.10;50.00
75500;DHT22;64076;51.466;7.260;2022-10-16T02:09:34;24.10;50.00
75500;DHT22;64076;51.466;7.260;2022-10-16T02:12:13;24.10;49.90
75500;DHT22;64076;51.466;7.260;2022-10-16T02:14:40;24.10;50.00
75500;DHT22;64076;51.466;7.260;2022-10-16T02:17:15;24.10;50.00
75500;DHT22;64076;51.466;7.260;2022-10-16T02:19:42;24.10;50.00
75500;DHT22;64076;51.466;7.260;2022-10-16T02:22:15;24.10;50.00
75500;DHT22;64076;51.466;7.260;2022-10-16T02:24:52;24.10;50.00
75500;DHT22;64076;51.466;7.260;2022-10-16T02:27:35;24.10;50.00
75500;DHT22;64076;51.466;7.260;2022-10-16T02:30:26;24.10;50.00
75500;DHT22;64076;51.466;7.260;2022-10-16T02:32:54;24.10;50.00
75500;DHT22;64076;51.466;7.260;2022-10-16T02:35:23;24.00;50.00
75500;DHT22;64076;51.466;7.260;2022-10-16T02:37:50;24.00;50.00
75500;DHT22;64076;51.466;7.260;2022-10-16T02:40:17;24.00;50.00
75500;DHT22;64076;51.466;7.260;2022-10-16T02:42:42;24.00;50.00
75500;DHT22;64076;51.466;7.260;2022-10-16T02:45:09;24.00;50.00
75500;DHT22;64076;51.466;7.260;2022-10-16T02:47:35;24.00;50.00
75500;DHT22;64076;51.466;7.260;2022-10-16T02:50:01;24.00;50.10
75500;DHT22;64076;51.466;7.260;2022-10-16T02:52:27;24.00;50.00
75500;DHT22;64076;51.466;7.260;2022-10-16T02:54:52;24.00;50.10
75500;DHT22;64076;51.466;7.260;2022-10-16T02:57:18;24.00;50.10
75500;DHT22;64076;51.466;7.260;2022-10-16T02:59:44;24.00;50.10
75500;DHT22;64076;51.466;7.260;2022-10-16T03:02:10;24.00;50.00
75500;DHT22;64076;51.466;7.260;2022-10-16T03:04:36;24.00;50.00
75500;DHT22;64076;51.466;7.260;2022-10-16T03:07:02;24.00;50.00
75500;DHT22;64076;51.466;7.260;2022-10-16T03:09:28;24.00;49.90
75500;DHT22;64076;51.466;7.260;2022-10-16T03:11:53;24.10;49.90
75500;DHT22;64076;51.466;7.260;2022-10-16T03:14:19;24.10;49.80
75500;DHT22;64076;51.466;7.260;2022-10-16T03:16:44;24.10;49.80
75500;DHT22;64076;51.466;7.260;2022-10-16T03:19:10;24.10;49.80
75500;DHT22;64076;51.466;7.260;2022-10-16T03:21:36;24.10;49.80
75500;DHT22;64076;51.466;7.260;2022-10-16T03:24:01;24.10;49.70
75500;DHT22;64076;51.466;7.260;2022-10-16T03:26:27;24.10;49.70
75500;DHT22;64076;51.466;7.260;2022-10-16T03:28:52;24.10;49.60
75500;DHT22;64076;51.466;7.260;2022-10-16T03:31:18;24.10;49.60
75500;DHT22;64076;51.466;7.260;2022-10-16T03:33:43;24.10;49.60
75500;DHT22;64076;51.466;7.260;2022-10-16T03:36:09;24.10;49.60
75500;DHT22;64076;51.466;7.260;2022-10-16T03:38:35;24.10;49.60
75500;DHT22;64076;51.466;7.260;2022-10-16T03:41:00;24.10;49.60
75500;DHT22;64076;51.466;7.260;2022-10-16T03:43:26;24.10;49.60
75500;DHT22;64076;51.466;7.260;2022-10-16T03:45:51;24.10;49.50
75500;DHT22;64076;51.466;7.260;2022-10-16T03:48:18;24.10;49.60
75500;DHT22;64076;51.466;7.260;2022-10-16T03:50:43;24.10;49.50
75500;DHT22;64076;51.466;7.260;2022-10-16T03:53:09;24.10;49.50
75500;DHT22;64076;51.466;7.260;2022-10-16T03:55:35;24.10;49.60
75500;DHT22;64076;51.466;7.260;2022-10-16T03:58:01;24.10;49.60
75500;DHT22;64076;51.466;7.260;2022-10-16T04:00:27;24.10;49.50
75500;DHT22;64076;51.466;7.260;2022-10-16T04:02:52;24.10;49.60
75500;DHT22;64076;51.466;7.260;2022-10-16T04:05:18;24.10;49.60
75500;DHT22;64076;51.466;7.260;2022-10-16T04:07:43;24.10;49.50
75500;DHT22;64076;51.466;7.260;2022-10-16T04:10:09;24.10;49.50
75500;DHT22;64076;51.466;7.260;2022-10-16T04:12:35;24.10;49.50
75500;DHT22;64076;51.466;7.260;2022-10-16T04:15:00;24.10;49.50
75500;DHT22;64076;51.466;7.260;2022-10-16T04:17:26;24.10;49.50
75500;DHT22;64076;51.466;7.260;2022-10-16T04:19:51;24.10;49.60
75500;DHT22;64076;51.466;7.260;2022-10-16T04:22:17;24.10;49.60
75500;DHT22;64076;51.466;7.260;2022-10-16T04:24:42;24.10;49.50
75500;DHT22;64076;51.466;7.260;2022-10-16T04:27:08;24.10;49.50
75500;DHT22;64076;51.466;7.260;2022-10-16T04:29:33;24.10;49.50
75500;DHT22;64076;51.466;7.260;2022-10-16T04:31:59;24.10;49.50
75500;DHT22;64076;51.466;7.260;2022-10-16T04:34:24;24.00;49.50
75500;DHT22;64076;51.466;7.260;2022-10-16T04:36:50;24.00;49.60
75500;DHT22;64076;51.466;7.260;2022-10-16T04:39:16;24.10;49.50
75500;DHT22;64076;51.466;7.260;2022-10-16T04:41:41;24.00;49.60
75500;DHT22;64076;51.466;7.260;2022-10-16T04:44:07;24.00;49.60
75500;DHT22;64076;51.466;7.260;2022-10-16T04:46:33;24.00;49.60
75500;DHT22;64076;51.466;7.260;2022-10-16T04:48:59;24.00;49.60
75500;DHT22;64076;51.466;7.260;2022-10-16T04:51:24;24.00;49.60
75500;DHT22;64076;51.466;7.260;2022-10-16T04:53:51;24.00;49.60
75500;DHT22;64076;51.466;7.260;2022-10-16T04:56:16;24.00;49.60
75500;DHT22;64076;51.466;7.260;2022-10-16T04:58:42;24.00;49.60
75500;DHT22;64076;51.466;7.260;2022-10-16T05:01:08;24.00;49.60
75500;DHT22;64076;51.466;7.260;2022-10-16T05:03:33;24.00;49.70
75500;DHT22;64076;51.466;7.260;2022-10-16T05:05:59;24.00;49.60
75500;DHT22;64076;51.466;7.260;2022-10-16T05:08:25;24.00;49.60
75500;DHT22;64076;51.466;7.260;2022-10-16T05:10:50;24.00;49.60
75500;DHT22;64076;51.466;7.260;2022-10-16T05:13:16;24.00;49.50
75500;DHT22;64076;51.466;7.260;2022-10-16T05:15:41;24.00;49.60
75500;DHT22;64076;51.466;7.260;2022-10-16T05:18:08;24.00;49.50
75500;DHT22;64076;51.466;7.260;2022-10-16T05:20:34;24.00;49.50
75500;DHT22;64076;51.466;7.260;2022-10-16T05:23:00;24.00;49.50
75500;DHT22;64076;51.466;7.260;2022-10-16T05:25:25;24.10;49.40
75500;DHT22;64076;51.466;7.260;2022-10-16T05:27:51;24.10;49.30
75500;DHT22;64076;51.466;7.260;2022-10-16T05:30:17;24.10;49.30
75500;DHT22;64076;51.466;7.260;2022-10-16T05:32:49;24.10;49.30
75500;DHT22;64076;51.466;7.260;2022-10-16T05:35:17;24.10;49.30
75500;DHT22;64076;51.466;7.260;2022-10-16T05:37:43;24.10;49.30
75500;DHT22;64076;51.466;7.260;2022-10-16T05:40:09;24.10;49.20
75500;DHT22;64076;51.466;7.260;2022-10-16T05:42:35;24.10;49.30
75500;DHT22;64076;51.466;7.260;2022-10-16T05:45:01;24.10;49.20
75500;DHT22;64076;51.466;7.260;2022-10-16T05:47:26;24.10;49.20
75500;DHT22;64076;51.466;7.260;2022-10-16T05:49:52;24.10;49.20
75500;DHT22;64076;51.466;7.260;2022-10-16T05:52:18;24.10;49.20
75500;DHT22;64076;51.466;7.260;2022-10-16T05:54:44;24.10;49.20
75500;DHT22;64076;51.466;7.260;2022-10-16T05:57:09;24.10;49.20
75500;DHT22;64076;51.466;7.260;2022-10-16T05:59:35;24.10;49.20
75500;DHT22;64076;51.466;7.260;2022-10-16T06:02:00;24.10;49.20
75500;DHT22;64076;51.466;7.260;2022-10-16T06:04:26;24.10;49.20
75500;DHT22;64076;51.466;7.260;2022-10-16T06:06:51;24.10;49.20
75500;DHT22;64076;51.466;7.260;2022-10-16T06:09:17;24.10;49.20
75500;DHT22;64076;51.466;7.260;2022-10-16T06:11:42;24.10;49.20
75500;DHT22;64076;51.466;7.260;2022-10-16T06:14:08;24.10;49.20
75500;DHT22;64076;51.466;7.260;2022-10-16T06:16:36;24.10;49.20
75500;DHT22;64076;51.466;7.260;2022-10-16T06:19:03;24.10;49.20
75500;DHT22;64076;51.466;7.260;2022-10-16T06:21:31;24.10;49.20
75500;DHT22;64076;51.466;7.260;2022-10-16T06:23:57;24.10;49.10
75500;DHT22;64076;51.466;7.260;2022-10-16T06:26:25;24.20;48.90
75500;DHT22;64076;51.466;7.260;2022-10-16T06:28:51;24.20;48.70
75500;DHT22;64076;51.466;7.260;2022-10-16T06:31:18;24.20;48.70
75500;DHT22;64076;51.466;7.260;2022-10-16T06:33:44;24.20;48.80
75500;DHT22;64076;51.466;7.260;2022-10-16T06:36:15;24.20;48.80
75500;DHT22;64076;51.466;7.260;2022-10-16T06:38:42;24.20;48.90
75500;DHT22;64076;51.466;7.260;2022-10-16T06:41:11;24.10;48.90
75500;DHT22;64076;51.466;7.260;2022-10-16T06:43:37;24.10;48.90
75500;DHT22;64076;51.466;7.260;2022-10-16T06:46:04;24.10;48.90
75500;DHT22;64076;51.466;7.260;2022-10-16T06:48:30;24.10;48.90
75500;DHT22;64076;51.466;7.260;2022-10-16T06:53:23;24.10;49.10
75500;DHT22;64076;51.466;7.260;2022-10-16T06:55:49;24.00;49.10
75500;DHT22;64076;51.466;7.260;2022-10-16T06:58:14;24.00;49.10
75500;DHT22;64076;51.466;7.260;2022-10-16T07:00:40;24.00;49.10
75500;DHT22;64076;51.466;7.260;2022-10-16T07:03:05;24.00;49.10
75500;DHT22;64076;51.466;7.260;2022-10-16T07:05:31;24.00;49.10
75500;DHT22;64076;51.466;7.260;2022-10-16T07:07:56;24.00;49.20
75500;DHT22;64076;51.466;7.260;2022-10-16T07:10:22;24.00;49.20
75500;DHT22;64076;51.466;7.260;2022-10-16T07:12:50;24.00;49.10
75500;DHT22;64076;51.466;7.260;2022-10-16T07:15:16;24.00;49.10
75500;DHT22;64076;51.466;7.260;2022-10-16T07:17:41;24.00;49.10
75500;DHT22;64076;51.466;7.260;2022-10-16T07:20:07;24.00;49.10
75500;DHT22;64076;51.466;7.260;2022-10-16T07:22:33;24.00;49.10
75500;DHT22;64076;51.466;7.260;2022-10-16T07:24:58;24.10;49.00
75500;DHT22;64076;51.466;7.260;2022-10-16T07:27:24;24.10;49.00
75500;DHT22;64076;51.466;7.260;2022-10-16T07:29:50;24.10;48.90
75500;DHT22;64076;51.466;7.260;2022-10-16T07:32:15;24.10;48.80
75500;DHT22;64076;51.466;7.260;2022-10-16T07:34:41;24.20;48.80
75500;DHT22;64076;51.466;7.260;2022-10-16T07:37:10;24.20;48.70
75500;DHT22;64076;51.466;7.260;2022-10-16T07:39:36;24.20;48.70
75500;DHT22;64076;51.466;7.260;2022-10-16T07:42:01;24.20;48.70
75500;DHT22;64076;51.466;7.260;2022-10-16T07:44:27;24.20;48.70
75500;DHT22;64076;51.466;7.260;2022-10-16T07:46:52;24.20;48.70
75500;DHT22;64076;51.466;7.260;2022-10-16T07:49:18;24.20;48.70
75500;DHT22;64076;51.466;7.260;2022-10-16T07:51:44;24.20;48.70
75500;DHT22;64076;51.466;7.260;2022-10-16T07:54:10;24.20;48.60
75500;DHT22;64076;51.466;7.260;2022-10-16T07:56:35;24.20;48.60
75500;DHT22;64076;51.466;7.260;2022-10-16T07:59:01;24.20;48.60
75500;DHT22;64076;51.466;7.260;2022-10-16T08:01:27;24.20;48.70
75500;DHT22;64076;51.466;7.260;2022-10-16T08:03:53;24.20;48.60
75500;DHT22;64076;51.466;7.260;2022-10-16T08:06:20;24.20;48.60
75500;DHT22;64076;51.466;7.260;2022-10-16T08:08:45;24.20;48.60
75500;DHT22;64076;51.466;7.260;2022-10-16T08:11:11;24.20;48.60
75500;DHT22;64076;51.466;7.260;2022-10-16T08:13:37;24.30;48.60
75500;DHT22;64076;51.466;7.260;2022-10-16T08:16:03;24.30;48.60
75500;DHT22;64076;51.466;7.260;2022-10-16T08:18:37;24.30;48.60
75500;DHT22;64076;51.466;7.260;2022-10-16T08:21:03;24.30;48.60
75500;DHT22;64076;51.466;7.260;2022-10-16T08:23:30;24.30;48.60
75500;DHT22;64076;51.466;7.260;2022-10-16T08:26:01;24.30;48.60
75500;DHT22;64076;51.466;7.260;2022-10-16T08:28:26;24.30;48.60
75500;DHT22;64076;51.466;7.260;2022-10-16T08:30:52;24.30;48.60
75500;DHT22;64076;51.466;7.260;2022-10-16T08:33:18;24.30;48.60
75500;DHT22;64076;51.466;7.260;2022-10-16T08:35:50;24.30;48.60
75500;DHT22;64076;51.466;7.260;2022-10-16T08:38:16;24.30;48.60
75500;DHT22;64076;51.466;7.260;2022-10-16T08:40:42;24.30;48.60
75500;DHT22;64076;51.466;7.260;2022-10-16T08:46:05;24.30;48.50
75500;DHT22;64076;51.466;7.260;2022-10-16T08:48:48;24.30;48.50
75500;DHT22;64076;51.466;7.260;2022-10-16T08:51:21;24.30;48.60
75500;DHT22;64076;51.466;7.260;2022-10-16T08:53:56;24.30;48.60
75500;DHT22;64076;51.466;7.260;2022-10-16T08:56:23;24.30;48.60
75500;DHT22;64076;51.466;7.260;2022-10-16T08:58:49;24.30;48.60
75500;DHT22;64076;51.466;7.260;2022-10-16T09:01:17;24.30;48.70
75500;DHT22;64076;51.466;7.260;2022-10-16T09:06:47;24.30;48.60
75500;DHT22;64076;51.466;7.260;2022-10-16T09:12:00;24.30;48.60
75500;DHT22;64076;51.466;7.260;2022-10-16T09:19:48;24.30;48.50
75500;DHT22;64076;51.466;7.260;2022-10-16T09:22:17;24.40;48.50
75500;DHT22;64076;51.466;7.260;2022-10-16T09:24:43;24.30;48.50
75500;DHT22;64076;51.466;7.260;2022-10-16T09:27:13;24.40;48.40
75500;DHT22;64076;51.466;7.260;2022-10-16T09:29:39;24.40;48.40
75500;DHT22;64076;51.466;7.260;2022-10-16T09:32:15;24.40;48.40
75500;DHT22;64076;51.466;7.260;2022-10-16T09:34:47;24.40;48.30
75500;DHT22;64076;51.466;7.260;2022-10-16T09:37:16;24.40;48.40
75500;DHT22;64076;51.466;7.260;2022-10-16T09:39:48;24.40;48.30
75500;DHT22;64076;51.466;7.260;2022-10-16T09:42:16;24.40;48.30
75500;DHT22;64076;51.466;7.260;2022-10-16T09:44:47;24.40;48.30
75500;DHT22;64076;51.466;7.260;2022-10-16T09:47:16;24.50;48.30
75500;DHT22;64076;51.466;7.260;2022-10-16T09:50:00;24.50;48.30
75500;DHT22;64076;51.466;7.260;2022-10-16T09:52:28;24.50;48.20
75500;DHT22;64076;51.466;7.260;2022-10-16T09:55:08;24.50;48.30
75500;DHT22;64076;51.466;7.260;2022-10-16T09:57:47;24.50;48.20
75500;DHT22;64076;51.466;7.260;2022-10-16T10:00:16;24.50;48.20
75500;DHT22;64076;51.466;7.260;2022-10-16T10:02:43;24.50;48.20
75500;DHT22;64076;51.466;7.260;2022-10-16T10:05:24;24.50;48.30
75500;DHT22;64076;51.466;7.260;2022-10-16T10:08:02;24.50;48.10
75500;DHT22;64076;51.466;7.260;2022-10-16T10:10:36;24.50;48.20
75500;DHT22;64076;51.466;7.260;2022-10-16T10:13:02;24.50;48.10
75500;DHT22;64076;51.466;7.260;2022-10-16T10:15:33;24.50;48.20
75500;DHT22;64076;51.466;7.260;2022-10-16T10:18:00;24.50;48.10
75500;DHT22;64076;51.466;7.260;2022-10-16T10:20:29;24.50;48.10
75500;DHT22;64076;51.466;7.260;2022-10-16T10:22:56;24.50;48.10
75500;DHT22;64076;51.466;7.260;2022-10-16T10:28:14;24.50;48.10
75500;DHT22;64076;51.466;7.260;2022-10-16T10:33:41;24.50;48.10
75500;DHT22;64076;51.466;7.260;2022-10-16T10:36:22;24.50;48.10
75500;DHT22;64076;51.466;7.260;2022-10-16T10:38:56;24.50;48.00
75500;DHT22;64076;51.466;7.260;2022-10-16T10:44:55;24.50;48.10
75500;DHT22;64076;51.466;7.260;2022-10-16T10:50:29;24.50;48.10
75500;DHT22;64076;51.466;7.260;2022-10-16T10:55:45;24.50;48.10
75500;DHT22;64076;51.466;7.260;2022-10-16T11:01:09;24.50;48.10
75500;DHT22;64076;51.466;7.260;2022-10-16T11:08:41;24.50;48.10
75500;DHT22;64076;51.466;7.260;2022-10-16T11:14:25;24.50;48.10
75500;DHT22;64076;51.466;7.260;2022-10-16T11:17:02;24.50;48.00
75500;DHT22;64076;51.466;7.260;2022-10-16T11:24:53;24.50;48.00
75500;DHT22;64076;51.466;7.260;2022-10-16T11:27:33;24.50;48.00
75500;DHT22;64076;51.466;7.260;2022-10-16T11:30:04;24.50;47.90
75500;DHT22;64076;51.466;7.260;2022-10-16T11:33:18;24.50;47.90
75500;DHT22;64076;51.466;7.260;2022-10-16T11:35:48;24.60;47.90
75500;DHT22;64076;51.466;7.260;2022-10-16T11:41:29;24.60;47.90
75500;DHT22;64076;51.466;7.260;2022-10-16T11:46:40;24.60;47.90
75500;DHT22;64076;51.466;7.260;2022-10-16T11:49:15;24.50;47.90
75500;DHT22;64076;51.466;7.260;2022-10-16T11:51:50;24.50;48.00
75500;DHT22;64076;51.466;7.260;2022-10-16T11:54:43;24.50;48.00
75500;DHT22;64076;51.466;7.260;2022-10-16T12:00:34;24.50;47.90
75500;DHT22;64076;51.466;7.260;2022-10-16T12:03:17;24.60;47.90
75500;DHT22;64076;51.466;7.260;2022-10-16T12:08:36;24.60;47.90
75500;DHT22;64076;51.466;7.260;2022-10-16T12:11:24;24.50;47.90
75500;DHT22;64076;51.466;7.260;2022-10-16T12:16:57;24.60;47.90
75500;DHT22;64076;51.466;7.260;2022-10-16T12:19:26;24.60;47.80
75500;DHT22;64076;51.466;7.260;2022-10-16T12:21:55;24.60;47.90
75500;DHT22;64076;51.466;7.260;2022-10-16T12:26:59;24.60;47.80
75500;DHT22;64076;51.466;7.260;2022-10-16T12:32:00;24.70;47.70
75500;DHT22;64076;51.466;7.260;2022-10-16T12:36:55;24.70;47.70
75500;DHT22;64076;51.466;7.260;2022-10-16T12:39:23;24.70;47.60
75500;DHT22;64076;51.466;7.260;2022-10-16T12:42:02;24.80;47.40
75500;DHT22;64076;51.466;7.260;2022-10-16T12:44:33;24.90;47.40
75500;DHT22;64076;51.466;7.260;2022-10-16T12:46:58;24.90;47.30
75500;DHT22;64076;51.466;7.260;2022-10-16T12:49:36;24.90;47.20
75500;DHT22;64076;51.466;7.260;2022-10-16T12:52:03;24.90;47.20
75500;DHT22;64076;51.466;7.260;2022-10-16T12:54:31;25.00;47.20
75500;DHT22;64076;51.466;7.260;2022-10-16T12:57:12;25.00;47.10
75500;DHT22;64076;51.466;7.260;2022-10-16T13:10:20;25.00;47.10
75500;DHT22;64076;51.466;7.260;2022-10-16T13:18:22;24.90;47.10
75500;DHT22;64076;51.466;7.260;2022-10-16T13:20:59;25.00;47.10
75500;DHT22;64076;51.466;7.260;2022-10-16T13:23:36;25.00;47.10
75500;DHT22;64076;51.466;7.260;2022-10-16T13:28:38;25.00;47.10
75500;DHT22;64076;51.466;7.260;2022-10-16T13:31:05;25.00;47.10
75500;DHT22;64076;51.466;7.260;2022-10-16T13:33:40;25.00;47.10
75500;DHT22;64076;51.466;7.260;2022-10-16T13:36:22;25.00;47.00
75500;DHT22;64076;51.466;7.260;2022-10-16T13:38:48;25.00;47.10
75500;DHT22;64076;51.466;7.260;2022-10-16T13:41:24;25.00;47.20
75500;DHT22;64076;51.466;7.260;2022-10-16T13:43:52;25.00;47.10
75500;DHT22;64076;51.466;7.260;2022-10-16T13:46:23;25.00;47.10
75500;DHT22;64076;51.466;7.260;2022-10-16T13:49:03;25.10;47.10
75500;DHT22;64076;51.466;7.260;2022-10-16T13:51:31;25.10;46.90
75500;DHT22;64076;51.466;7.260;2022-10-16T13:53:57;25.10;47.00
75500;DHT22;64076;51.466;7.260;2022-10-16T13:56:26;25.10;46.90
75500;DHT22;64076;51.466;7.260;2022-10-16T13:59:03;25.10;46.90
75500;DHT22;64076;51.466;7.260;2022-10-16T14:01:35;25.10;46.90
75500;DHT22;64076;51.466;7.260;2022-10-16T14:04:11;25.10;46.90
75500;DHT22;64076;51.466;7.260;2022-10-16T14:06:41;25.10;46.90
75500;DHT22;64076;51.466;7.260;2022-10-16T14:09:22;25.10;46.80
75500;DHT22;64076;51.466;7.260;2022-10-16T14:12:00;25.10;46.70
75500;DHT22;64076;51.466;7.260;2022-10-16T14:14:35;25.10;46.80
75500;DHT22;64076;51.466;7.260;2022-10-16T14:17:05;25.10;46.80
75500;DHT22;64076;51.466;7.260;2022-10-16T14:19:31;25.10;46.70
75500;DHT22;64076;51.466;7.260;2022-10-16T14:21:58;25.10;46.70
75500;DHT22;64076;51.466;7.260;2022-10-16T14:24:33;25.10;46.70
75500;DHT22;64076;51.466;7.260;2022-10-16T14:27:00;25.10;46.60
75500;DHT22;64076;51.466;7.260;2022-10-16T14:29:27;25.20;46.60
75500;DHT22;64076;51.466;7.260;2022-10-16T14:32:00;25.20;46.60
75500;DHT22;64076;51.466;7.260;2022-10-16T14:34:37;25.20;46.60
75500;DHT22;64076;51.466;7.260;2022-10-16T14:37:09;25.10;46.60
75500;DHT22;64076;51.466;7.260;2022-10-16T14:39:39;25.10;46.70
75500;DHT22;64076;51.466;7.260;2022-10-16T14:42:14;25.10;46.70
75500;DHT22;64076;51.466;7.260;2022-10-16T14:44:42;25.10;46.60
75500;DHT22;64076;51.466;7.260;2022-10-16T14:47:13;25.10;46.60
75500;DHT22;64076;51.466;7.260;2022-10-16T14:49:41;25.10;46.80
75500;DHT22;64076;51.466;7.260;2022-10-16T14:52:11;25.10;46.90
75500;DHT22;64076;51.466;7.260;2022-10-16T14:54:37;25.10;46.90
75500;DHT22;64076;51.466;7.260;2022-10-16T14:57:02;25.10;47.00
75500;DHT22;64076;51.466;7.260;2022-10-16T14:59:40;25.10;47.00
75500;DHT22;64076;51.466;7.260;2022-10-16T15:04:54;25.10;46.90
75500;DHT22;64076;51.466;7.260;2022-10-16T15:07:20;25.10;46.90
75500;DHT22;64076;51.466;7.260;2022-10-16T15:09:46;25.00;47.00
75500;DHT22;64076;51.466;7.260;2022-10-16T15:12:12;25.00;47.00
75500;DHT22;64076;51.466;7.260;2022-10-16T15:14:37;25.00;47.00
75500;DHT22;64076;51.466;7.260;2022-10-16T15:17:03;25.00;47.00
75500;DHT22;64076;51.466;7.260;2022-10-16T15:19:29;25.00;47.00
75500;DHT22;64076;51.466;7.260;2022-10-16T15:21:55;24.90;47.00
75500;DHT22;64076;51.466;7.260;2022-10-16T15:24:21;24.90;47.00
75500;DHT22;64076;51.466;7.260;2022-10-16T15:26:47;24.90;47.10
75500;DHT22;64076;51.466;7.260;2022-10-16T15:29:14;24.90;47.10
75500;DHT22;64076;51.466;7.260;2022-10-16T15:31:39;24.80;47.20
75500;DHT22;64076;51.466;7.260;2022-10-16T15:34:09;24.80;47.20
75500;DHT22;64076;51.466;7.260;2022-10-16T15:36:41;24.80;47.30
75500;DHT22;64076;51.466;7.260;2022-10-16T15:39:18;24.70;47.20
75500;DHT22;64076;51.466;7.260;2022-10-16T15:41:45;24.80;47.30
75500;DHT22;64076;51.466;7.260;2022-10-16T15:44:19;24.70;47.20
75500;DHT22;64076;51.466;7.260;2022-10-16T15:46:45;24.70;47.30
75500;DHT22;64076;51.466;7.260;2022-10-16T15:49:12;24.70;47.30
75500;DHT22;64076;51.466;7.260;2022-10-16T15:51:38;24.70;47.40
75500;DHT22;64076;51.466;7.260;2022-10-16T15:54:04;24.60;47.40
75500;DHT22;64076;51.466;7.260;2022-10-16T15:56:30;24.60;47.40
75500;DHT22;64076;51.466;7.260;2022-10-16T15:58:59;24.60;47.50
75500;DHT22;64076;51.466;7.260;2022-10-16T16:01:25;24.50;47.50
75500;DHT22;64076;51.466;7.260;2022-10-16T16:03:54;24.50;47.50
75500;DHT22;64076;51.466;7.260;2022-10-16T16:06:20;24.50;47.50
75500;DHT22;64076;51.466;7.260;2022-10-16T16:08:46;24.50;47.50
75500;DHT22;64076;51.466;7.260;2022-10-16T16:11:14;24.60;47.50
75500;DHT22;64076;51.466;7.260;2022-10-16T16:13:40;24.50;47.50
75500;DHT22;64076;51.466;7.260;2022-10-16T16:16:11;24.60;47.40
75500;DHT22;64076;51.466;7.260;2022-10-16T16:18:38;24.60;47.30
75500;DHT22;64076;51.466;7.260;2022-10-16T16:21:04;24.70;47.30
75500;DHT22;64076;51.466;7.260;2022-10-16T16:23:30;24.70;47.20
75500;DHT22;64076;51.466;7.260;2022-10-16T16:26:03;24.70;47.10
75500;DHT22;64076;51.466;7.260;2022-10-16T16:28:29;24.80;47.00
75500;DHT22;64076;51.466;7.260;2022-10-16T16:30:55;24.80;47.00
75500;DHT22;64076;51.466;7.260;2022-10-16T16:33:21;24.90;46.80
75500;DHT22;64076;51.466;7.260;2022-10-16T16:35:46;24.90;46.80
75500;DHT22;64076;51.466;7.260;2022-10-16T16:38:12;24.90;46.80
75500;DHT22;64076;51.466;7.260;2022-10-16T16:40:37;24.90;46.80
75500;DHT22;64076;51.466;7.260;2022-10-16T16:43:03;24.90;46.80
75500;DHT22;64076;51.466;7.260;2022-10-16T16:45:29;24.90;46.80
75500;DHT22;64076;51.466;7.260;2022-10-16T16:47:55;24.90;46.80
75500;DHT22;64076;51.466;7.260;2022-10-16T16:50:20;24.90;46.70
75500;DHT22;64076;51.466;7.260;2022-10-16T16:52:46;24.90;46.80
75500;DHT22;64076;51.466;7.260;2022-10-16T16:55:11;24.90;46.80
75500;DHT22;64076;51.466;7.260;2022-10-16T16:57:37;24.90;46.80
75500;DHT22;64076;51.466;7.260;2022-10-16T17:00:03;24.90;46.80
75500;DHT22;64076;51.466;7.260;2022-10-16T17:02:29;24.90;46.90
75500;DHT22;64076;51.466;7.260;2022-10-16T17:04:55;24.90;46.90
75500;DHT22;64076;51.466;7.260;2022-10-16T17:07:22;24.90;46.90
75500;DHT22;64076;51.466;7.260;2022-10-16T17:09:47;24.80;46.90
75500;DHT22;64076;51.466;7.260;2022-10-16T17:12:15;24.80;46.90
75500;DHT22;64076;51.466;7.260;2022-10-16T17:14:41;24.80;46.90
75500;DHT22;64076;51.466;7.260;2022-10-16T17:17:07;24.80;47.00
75500;DHT22;64076;51.466;7.260;2022-10-16T17:19:32;24.80;47.10
75500;DHT22;64076;51.466;7.260;2022-10-16T17:21:58;24.80;47.00
75500;DHT22;64076;51.466;7.260;2022-10-16T17:24:23;24.80;47.10
75500;DHT22;64076;51.466;7.260;2022-10-16T17:26:49;24.70;47.10
75500;DHT22;64076;51.466;7.260;2022-10-16T17:29:16;24.70;47.10